EZY66 EHAM-EGKK
Flight info
| Callsign | EZY66 |
|---|---|
| Flight time | N/A |
| Altitude | 24000 |
| Route | IDRID L980 ABNED Z344 AMRIV Q63 ARREK Y4 TEBRA |
| Aircraft | A320/M-SDE2E3FGHIJ1RWXYZ/LB1 |
Departure
| Time | 2026-04-28 13:14 |
|---|---|
| Airport | Amsterdam Airport Schiphol (EHAM) |
Arrival
| Time | N/A |
|---|---|
| Airport | London Gatwick Airport (EGKK) |
| Time | Latitude | Longitude | Altitude | Speed | Heading |
|---|---|---|---|---|---|
| 2026-04-28 12:49 | 52.31363 | 4.75786 | -3 ft | 0 kts | 266° |
| 2026-04-28 13:05 | 52.31363 | 4.75787 | -3 ft | 1 kts | 266° |
| 2026-04-28 13:05 | 52.31364 | 4.75809 | -3 ft | 3 kts | 266° |
| 2026-04-28 13:05 | 52.31365 | 4.75842 | -3 ft | 3 kts | 266° |
| 2026-04-28 13:06 | 52.31367 | 4.75870 | -3 ft | 3 kts | 267° |
| 2026-04-28 13:06 | 52.31365 | 4.75902 | -3 ft | 3 kts | 296° |
| 2026-04-28 13:06 | 52.31359 | 4.75919 | -3 ft | 3 kts | 324° |
| 2026-04-28 13:06 | 52.31335 | 4.75933 | -3 ft | 3 kts | 356° |
| 2026-04-28 13:07 | 52.31328 | 4.75934 | -3 ft | 0 kts | 357° |
| 2026-04-28 13:08 | 52.31330 | 4.75934 | -3 ft | 2 kts | 357° |
| 2026-04-28 13:08 | 52.31348 | 4.75932 | -3 ft | 6 kts | 357° |
| 2026-04-28 13:08 | 52.31409 | 4.75927 | -3 ft | 11 kts | 357° |
| 2026-04-28 13:08 | 52.31498 | 4.75909 | -3 ft | 13 kts | 336° |
| 2026-04-28 13:09 | 52.31527 | 4.75767 | -3 ft | 15 kts | 266° |
| 2026-04-28 13:09 | 52.31518 | 4.75574 | -3 ft | 19 kts | 267° |
| 2026-04-28 13:09 | 52.31511 | 4.75352 | -4 ft | 15 kts | 266° |
| 2026-04-28 13:09 | 52.31508 | 4.75270 | -4 ft | 0 kts | 266° |
| 2026-04-28 13:11 | 52.31507 | 4.75243 | -4 ft | 0 kts | 266° |
| 2026-04-28 13:11 | 52.31507 | 4.75240 | -4 ft | 2 kts | 266° |
| 2026-04-28 13:11 | 52.31503 | 4.75135 | -4 ft | 16 kts | 266° |
| 2026-04-28 13:11 | 52.31496 | 4.74921 | -3 ft | 21 kts | 265° |
| 2026-04-28 13:12 | 52.31500 | 4.74703 | -3 ft | 8 kts | 300° |
| 2026-04-28 13:12 | 52.31511 | 4.74682 | -3 ft | 0 kts | 314° |
| 2026-04-28 13:12 | 52.31515 | 4.74677 | -3 ft | 4 kts | 322° |
| 2026-04-28 13:12 | 52.31570 | 4.74659 | -3 ft | 11 kts | 359° |
| 2026-04-28 13:13 | 52.31652 | 4.74690 | -2 ft | 14 kts | 45° |
| 2026-04-28 13:13 | 52.31673 | 4.74850 | -4 ft | 16 kts | 86° |
| 2026-04-28 13:13 | 52.31688 | 4.75261 | -4 ft | 70 kts | 87° |
| 2026-04-28 13:13 | 52.31723 | 4.76395 | -3 ft | 127 kts | 87° |
| 2026-04-28 13:14 | 52.31790 | 4.78080 | 93 ft | 162 kts | 87° |
| 2026-04-28 13:14 | 52.32031 | 4.79879 | 720 ft | 161 kts | 61° |
| 2026-04-28 13:14 | 52.32908 | 4.80959 | 1485 ft | 166 kts | 20° |
| 2026-04-28 13:14 | 52.34131 | 4.80918 | 1898 ft | 190 kts | 348° |
| 2026-04-28 13:15 | 52.35463 | 4.80241 | 2345 ft | 211 kts | 344° |
| 2026-04-28 13:15 | 52.36956 | 4.79556 | 2762 ft | 234 kts | 349° |
| 2026-04-28 13:15 | 52.38553 | 4.78785 | 3597 ft | 244 kts | 334° |
| 2026-04-28 13:15 | 52.39901 | 4.77088 | 4634 ft | 248 kts | 314° |
| 2026-04-28 13:16 | 52.41161 | 4.74985 | 5415 ft | 269 kts | 314° |
| 2026-04-28 13:16 | 52.42529 | 4.72735 | 6184 ft | 286 kts | 314° |
| 2026-04-28 13:16 | 52.43937 | 4.70441 | 7203 ft | 291 kts | 314° |
| 2026-04-28 13:16 | 52.45285 | 4.67958 | 8238 ft | 293 kts | 298° |
| 2026-04-28 13:17 | 52.45957 | 4.64848 | 9250 ft | 289 kts | 271° |
| 2026-04-28 13:17 | 52.45752 | 4.61638 | 10288 ft | 282 kts | 248° |
| 2026-04-28 13:17 | 52.45008 | 4.58570 | 10915 ft | 300 kts | 241° |
| 2026-04-28 13:17 | 52.44085 | 4.55369 | 11352 ft | 322 kts | 240° |
| 2026-04-28 13:18 | 52.43122 | 4.51981 | 12080 ft | 331 kts | 242° |
| 2026-04-28 13:18 | 52.42167 | 4.48534 | 13018 ft | 332 kts | 239° |
| 2026-04-28 13:18 | 52.41082 | 4.45241 | 13919 ft | 334 kts | 238° |
| 2026-04-28 13:18 | 52.39961 | 4.41833 | 14809 ft | 337 kts | 238° |
| 2026-04-28 13:19 | 52.38855 | 4.38438 | 15661 ft | 340 kts | 238° |
| 2026-04-28 13:19 | 52.38113 | 4.36157 | 16215 ft | 342 kts | 238° |
| 2026-04-28 13:19 | 52.36615 | 4.31555 | 17277 ft | 345 kts | 239° |
| 2026-04-28 13:19 | 52.35864 | 4.29252 | 17799 ft | 347 kts | 239° |
| 2026-04-28 13:20 | 52.34334 | 4.24572 | 18804 ft | 351 kts | 239° |
| 2026-04-28 13:20 | 52.33179 | 4.21048 | 19541 ft | 353 kts | 239° |
| 2026-04-28 13:20 | 52.32011 | 4.17498 | 20257 ft | 356 kts | 238° |
| 2026-04-28 13:20 | 52.30675 | 4.14080 | 20947 ft | 358 kts | 232° |
| 2026-04-28 13:21 | 52.29143 | 4.10864 | 21602 ft | 361 kts | 231° |
| 2026-04-28 13:21 | 52.27590 | 4.07630 | 22245 ft | 364 kts | 231° |
| 2026-04-28 13:21 | 52.26025 | 4.04357 | 22870 ft | 367 kts | 231° |
| 2026-04-28 13:21 | 52.24450 | 4.01064 | 23478 ft | 370 kts | 232° |
| 2026-04-28 13:22 | 52.22860 | 3.97739 | 23907 ft | 374 kts | 232° |
| 2026-04-28 13:22 | 52.21256 | 3.94392 | 24032 ft | 374 kts | 232° |
| 2026-04-28 13:22 | 52.19654 | 3.91050 | 24048 ft | 374 kts | 232° |
| 2026-04-28 13:22 | 52.18053 | 3.87716 | 24048 ft | 374 kts | 232° |
| 2026-04-28 13:23 | 52.16443 | 3.84370 | 24048 ft | 374 kts | 232° |
| 2026-04-28 13:23 | 52.14860 | 3.81083 | 24048 ft | 374 kts | 232° |
| 2026-04-28 13:23 | 52.13258 | 3.77760 | 24048 ft | 374 kts | 232° |